Tampa, Florida
Traffic Map
Current Weather Conditions
Tampa, Florida
Broken Clouds
Broken Clouds
34°
Feels Like: 35°
Wind Chill: 34° Ceiling: 8500
Heat Index: 35° Visibility: 10mi
Dew Point: 18° Wind: 10mph
Humidity: 38% Direction: 140° (SE)
Pressure: 30.01in Gusts: 20mph
Raw Report DataKTPA 302053Z 14009G17KT 10SM SCT065 BKN085 34/18 A3001 RMK AO2 SLP162 T03390178 56016
Traffic Incident Summary
Active as of:
Severity:
Category:
InformationThere was an issue retrieving the traffic information for this location. Please try a different location or try again shortly.
Advertisements
Track Severe Weather on mobile